Time;durP1;ratioP1;P1;durP2;ratioP2;P2;SDS_P1;SDS_P2;PMS_P1;PMS_P2;Temp;Humidity;BMP_temperature;BMP_pressure;BME280_temperature;BME280_humidity;BME280_pressure;Samples;Min_cycle;Max_cycle;Signal;HPM_P1;HPM_P2
2022/03/05 00:00:08;;;;;;;65.47;32.15;;;;;;;4.35;59.13;100081.69;4333741;33;33601;-68
2022/03/05 00:02:37;;;;;;;60.80;31.75;;;;;;;3.82;60.38;100087.56;4320824;33;35079;-72
2022/03/05 00:05:05;;;;;;;56.10;30.77;;;;;;;3.93;60.03;100079.00;4333808;33;34190;-70
2022/03/05 00:07:33;;;;;;;64.72;32.17;;;;;;;3.75;60.78;100079.47;4333362;33;35015;-68
2022/03/05 00:10:00;;;;;;;56.75;29.40;;;;;;;3.39;61.86;100074.25;4320401;33;33747;-66
2022/03/05 00:12:28;;;;;;;54.83;26.02;;;;;;;3.07;63.02;100085.34;4333766;33;34070;-66
2022/03/05 00:14:56;;;;;;;52.78;27.58;;;;;;;3.49;61.09;100080.94;4333496;33;34168;-67
2022/03/05 00:17:23;;;;;;;56.03;28.92;;;;;;;3.55;60.25;100073.97;4333718;33;34734;-68
2022/03/05 00:19:51;;;;;;;55.08;27.50;;;;;;;3.95;59.58;100076.91;4333724;33;33711;-67
2022/03/05 00:22:20;;;;;;;59.50;31.50;;;;;;;3.79;60.62;100080.75;4333495;33;33745;-71
2022/03/05 00:24:47;;;;;;;55.65;28.85;;;;;;;3.56;61.44;100088.22;4333779;33;35137;-72
2022/03/05 00:27:17;;;;;;;54.88;28.95;;;;;;;3.54;61.41;100076.84;4333659;33;34862;-72
2022/03/05 00:29:44;;;;;;;53.20;27.30;;;;;;;3.51;61.53;100071.88;4333540;33;34531;-72
2022/03/05 00:32:11;;;;;;;49.53;27.60;;;;;;;3.83;60.53;100075.81;4333374;33;34518;-72
2022/03/05 00:34:39;;;;;;;48.70;26.17;;;;;;;3.53;61.28;100080.56;4333686;33;33867;-71
2022/03/05 00:37:08;;;;;;;42.38;22.25;;;;;;;3.80;60.36;100074.37;4333216;33;33975;-72
2022/03/05 00:39:37;;;;;;;44.28;24.42;;;;;;;3.46;61.90;100075.97;4333045;33;34508;-68
2022/03/05 00:42:05;;;;;;;46.65;24.15;;;;;;;3.75;61.07;100075.97;4333678;33;33750;-67
2022/03/05 00:44:33;;;;;;;45.05;23.85;;;;;;;3.72;61.12;100073.69;4333317;33;35082;-70
2022/03/05 00:47:00;;;;;;;43.80;23.95;;;;;;;3.76;61.10;100070.41;4333504;33;34725;-69
2022/03/05 00:49:28;;;;;;;41.08;22.73;;;;;;;3.55;61.73;100067.78;4333574;33;34539;-68
2022/03/05 00:51:55;;;;;;;41.97;21.42;;;;;;;3.98;60.05;100071.16;4333285;33;34015;-67
2022/03/05 00:54:24;;;;;;;41.88;21.37;;;;;;;3.83;59.65;100067.78;4333351;33;35066;-68
2022/03/05 00:56:52;;;;;;;37.17;21.23;;;;;;;4.27;58.42;100062.00;4333433;33;34053;-68
2022/03/05 00:59:20;;;;;;;40.47;21.75;;;;;;;3.70;59.08;100066.66;4333359;33;34514;-67
2022/03/05 01:01:47;;;;;;;43.35;21.73;;;;;;;3.78;58.94;100057.63;4333330;33;34825;-67
2022/03/05 01:04:15;;;;;;;37.10;21.30;;;;;;;3.49;59.92;100064.84;4333348;33;34143;-69
2022/03/05 01:06:42;;;;;;;38.72;21.42;;;;;;;3.59;59.81;100059.16;4333324;33;33849;-70
2022/03/05 01:09:10;;;;;;;38.10;20.98;;;;;;;3.96;58.90;100061.66;4333560;33;34458;-67
2022/03/05 01:11:37;;;;;;;1.58;1.48;;;;;;;4.07;58.67;100064.59;4333155;33;33802;-72
2022/03/05 01:14:07;;;;;;;38.08;20.58;;;;;;;4.30;58.28;100050.87;4333327;33;35158;-72
2022/03/05 01:16:35;;;;;;;35.30;17.42;;;;;;;3.64;60.33;100059.38;4333263;33;34068;-71
2022/03/05 01:19:03;;;;;;;2.28;1.30;;;;;;;3.32;61.20;100050.06;4333057;33;34313;-69
2022/03/05 01:21:30;;;;;;;36.33;19.40;;;;;;;3.53;60.32;100053.75;4333187;33;33993;-71
2022/03/05 01:23:58;;;;;;;32.88;18.17;;;;;;;3.42;60.66;100057.78;4333554;33;34260;-71
2022/03/05 01:26:29;;;;;;;31.92;16.55;;;;;;;3.78;59.76;100060.31;4333095;33;34071;-67
2022/03/05 01:28:56;;;;;;;30.77;17.15;;;;;;;3.67;60.09;100052.78;4333402;33;34214;-68
2022/03/05 01:31:24;;;;;;;29.87;15.63;;;;;;;3.73;59.82;100048.50;4333048;33;34926;-68
2022/03/05 01:33:52;;;;;;;29.90;17.37;;;;;;;3.64;59.78;100055.88;4332677;33;34126;-67
2022/03/05 01:36:19;;;;;;;34.53;17.85;;;;;;;3.09;61.13;100055.66;4333014;33;34035;-68
2022/03/05 01:38:46;;;;;;;32.75;17.95;;;;;;;3.19;61.07;100056.12;4332968;33;33596;-68
2022/03/05 01:41:14;;;;;;;36.95;17.75;;;;;;;3.74;59.29;100050.16;4332819;33;33754;-67
2022/03/05 01:43:41;;;;;;;29.90;18.12;;;;;;;4.13;58.89;100051.44;4332911;33;35098;-67
2022/03/05 01:46:10;;;;;;;32.63;16.62;;;;;;;3.73;59.89;100052.00;4332752;33;34239;-67
2022/03/05 01:48:39;;;;;;;31.58;17.45;;;;;;;4.04;59.08;100051.59;4332990;33;33855;-67
2022/03/05 01:51:07;;;;;;;31.23;16.42;;;;;;;3.72;59.51;100061.09;4333841;33;34752;-72
2022/03/05 01:53:34;;;;;;;31.25;16.42;;;;;;;3.47;60.44;100061.53;4334710;33;34245;-70
2022/03/05 01:56:02;;;;;;;1.65;1.10;;;;;;;3.53;59.77;100061.78;4334364;33;34870;-67
2022/03/05 01:58:29;;;;;;;0.73;0.73;;;;;;;3.99;58.21;100059.38;4321598;33;33560;-68
2022/03/05 02:00:57;;;;;;;29.70;15.85;;;;;;;3.67;58.24;100064.37;4334614;33;34843;-68
2022/03/05 02:03:25;;;;;;;2.53;2.15;;;;;;;3.60;59.12;100068.03;4334334;33;35104;-68
2022/03/05 02:05:52;;;;;;;27.75;15.50;;;;;;;3.77;58.69;100065.88;4334610;33;33773;-68
2022/03/05 02:08:20;;;;;;;29.35;15.77;;;;;;;3.25;59.91;100067.97;4334579;33;33667;-68
2022/03/05 02:10:47;;;;;;;26.75;15.75;;;;;;;3.18;59.77;100062.53;4334086;33;34530;-68
2022/03/05 02:13:15;;;;;;;34.92;18.37;;;;;;;3.55;58.65;100070.47;4334540;33;35138;-68
2022/03/05 02:15:42;;;;;;;34.22;18.50;;;;;;;3.35;58.92;100063.09;4334545;33;33113;-67
2022/03/05 02:18:09;;;;;;;33.67;17.95;;;;;;;3.21;59.40;100078.22;4334313;33;33524;-68
2022/03/05 02:20:39;;;;;;;36.35;19.25;;;;;;;3.45;58.25;100071.63;4334580;33;33980;-70
2022/03/05 02:23:06;;;;;;;36.38;19.98;;;;;;;3.11;59.22;100072.38;4334468;33;34216;-71
2022/03/05 02:25:33;;;;;;;36.83;19.05;;;;;;;2.80;60.22;100080.72;4334446;33;33164;-72
2022/03/05 02:28:01;;;;;;;38.72;21.15;;;;;;;3.34;59.15;100082.06;4334538;33;33389;-69
2022/03/05 02:30:29;;;;;;;36.53;21.10;;;;;;;3.01;59.84;100077.22;4321270;33;34091;-72
2022/03/05 02:32:57;;;;;;;39.10;20.95;;;;;;;2.70;60.55;100083.72;4334251;33;34070;-71
2022/03/05 02:35:25;;;;;;;43.00;22.48;;;;;;;2.95;59.89;100084.16;4334174;33;33758;-68
2022/03/05 02:37:52;;;;;;;42.65;22.45;;;;;;;2.56;60.78;100077.37;4334302;33;33465;-71
2022/03/05 02:40:19;;;;;;;42.85;22.55;;;;;;;3.15;58.93;100072.81;4334268;33;34786;-72
2022/03/05 02:42:47;;;;;;;44.13;22.27;;;;;;;3.12;59.03;100078.56;4334439;33;34804;-71
2022/03/05 02:45:14;;;;;;;0.88;0.85;;;;;;;2.95;59.42;100081.50;4334336;33;34054;-72
2022/03/05 02:47:42;;;;;;;43.53;23.60;;;;;;;2.71;60.25;100081.88;4334187;33;33650;-69
2022/03/05 02:50:09;;;;;;;39.10;22.00;;;;;;;2.69;60.31;100082.03;4334415;33;33761;-67
2022/03/05 02:52:40;;;;;;;3.45;2.25;;;;;;;2.18;61.76;100084.72;4334488;33;34334;-72
2022/03/05 02:55:08;;;;;;;42.85;23.58;;;;;;;2.66;60.04;100085.13;4334136;33;34761;-72
2022/03/05 02:57:35;;;;;;;44.25;23.55;;;;;;;2.43;60.69;100077.22;4334372;33;33474;-72
2022/03/05 03:00:04;;;;;;;44.42;23.50;;;;;;;2.14;61.55;100080.75;4334057;33;34826;-67
2022/03/05 03:02:31;;;;;;;8.50;3.53;;;;;;;2.73;60.17;100079.81;4333917;33;34185;-68
2022/03/05 03:05:00;;;;;;;39.90;21.95;;;;;;;3.23;58.72;100078.03;4333983;33;33725;-71
2022/03/05 03:07:28;;;;;;;40.80;22.80;;;;;;;3.44;58.14;100077.19;4333988;33;33319;-68
2022/03/05 03:09:56;;;;;;;39.25;21.73;;;;;;;2.79;59.29;100087.09;4334231;33;34005;-68
2022/03/05 03:12:30;;;;;;;45.87;23.77;;;;;;;2.87;59.36;100077.09;4334164;33;35042;-67
2022/03/05 03:14:57;;;;;;;42.30;24.10;;;;;;;2.49;60.18;100076.47;4333964;33;33955;-70
2022/03/05 03:17:25;;;;;;;40.65;22.13;;;;;;;2.29;61.14;100086.09;4334149;33;33691;-68
2022/03/05 03:19:52;;;;;;;46.45;23.52;;;;;;;2.59;60.38;100082.34;4334205;33;33457;-68
2022/03/05 03:22:20;;;;;;;45.72;22.83;;;;;;;2.30;60.77;100085.91;4334002;33;34084;-68
2022/03/05 03:24:47;;;;;;;44.83;22.60;;;;;;;2.55;60.14;100083.75;4333974;33;33890;-67
2022/03/05 03:27:15;;;;;;;41.85;23.05;;;;;;;2.72;59.59;100084.37;4334090;33;34449;-68
2022/03/05 03:29:42;;;;;;;44.38;23.38;;;;;;;2.29;60.94;100086.09;4333875;33;33944;-68
2022/03/05 03:32:09;;;;;;;4.15;3.12;;;;;;;2.69;60.01;100075.84;4333965;33;34304;-67
2022/03/05 03:34:37;;;;;;;43.22;22.92;;;;;;;2.59;60.43;100079.69;4334073;33;34025;-67
2022/03/05 03:37:05;;;;;;;41.28;22.90;;;;;;;2.81;59.90;100083.22;4333845;33;33537;-68
2022/03/05 03:39:32;;;;;;;42.72;23.33;;;;;;;2.81;59.93;100077.84;4333888;33;34998;-68
2022/03/05 03:42:00;;;;;;;40.40;22.17;;;;;;;2.67;59.81;100081.41;4333959;33;34236;-72
2022/03/05 03:44:27;;;;;;;44.95;23.08;;;;;;;2.98;58.92;100078.44;4333744;33;34673;-72
2022/03/05 03:46:56;;;;;;;45.65;23.17;;;;;;;3.04;59.07;100076.84;4333936;33;33700;-69
2022/03/05 03:49:24;;;;;;;42.20;22.85;;;;;;;2.89;59.28;100079.56;4320562;33;34551;-67
2022/03/05 03:51:51;;;;;;;41.90;21.95;;;;;;;2.42;60.31;100083.59;4333640;33;34183;-68
2022/03/05 03:54:19;;;;;;;2.47;2.28;;;;;;;2.31;60.83;100090.25;4333991;33;34071;-69
2022/03/05 03:56:46;;;;;;;39.67;21.17;;;;;;;3.01;59.29;100088.78;4333887;33;33310;-68
2022/03/05 03:59:15;;;;;;;41.75;20.62;;;;;;;2.81;59.62;100082.38;4320417;33;33867;-67
2022/03/05 04:01:42;;;;;;;37.10;19.37;;;;;;;2.59;59.79;100082.34;4333704;33;33938;-68
2022/03/05 04:04:10;;;;;;;12.15;5.97;;;;;;;2.89;58.62;100076.88;4333818;33;33795;-71
2022/03/05 04:09:24;;;;;;;1.30;0.88;;;;;;;2.40;59.50;100082.97;4333891;33;34645;-67
2022/03/05 04:11:51;;;;;;;31.73;17.40;;;;;;;3.12;56.53;100074.03;4320373;33;34212;-67
2022/03/05 04:14:19;;;;;;;30.98;16.50;;;;;;;3.36;55.88;100077.34;4332980;33;34228;-67
2022/03/05 04:16:46;;;;;;;28.42;15.00;;;;;;;3.22;56.00;100081.75;4333767;33;33879;-68
2022/03/05 04:19:14;;;;;;;32.33;16.45;;;;;;;3.24;56.93;100082.38;4333556;33;33869;-67
2022/03/05 04:21:41;;;;;;;29.48;14.70;;;;;;;3.04;57.22;100088.37;4333682;33;34257;-67
2022/03/05 04:24:10;;;;;;;28.80;15.80;;;;;;;3.37;56.28;100093.25;4333931;33;33853;-68
2022/03/05 04:26:38;;;;;;;25.12;14.38;;;;;;;2.79;57.20;100100.50;4333480;33;33631;-72
2022/03/05 04:29:05;;;;;;;28.02;14.43;;;;;;;2.86;56.99;100102.22;4333688;33;33935;-72
2022/03/05 04:31:33;;;;;;;26.23;14.18;;;;;;;3.10;55.84;100099.38;4333551;33;34304;-68
2022/03/05 04:34:01;;;;;;;2.40;1.77;;;;;;;2.55;57.13;100099.81;4333488;33;33870;-68
2022/03/05 04:36:28;;;;;;;26.58;14.55;;;;;;;3.14;55.86;100097.97;4333532;33;34203;-72
2022/03/05 04:38:56;;;;;;;1.00;0.73;;;;;;;3.16;55.54;100103.97;4333466;33;34560;-71
2022/03/05 04:41:23;;;;;;;25.65;13.48;;;;;;;3.05;55.44;100102.63;4333442;33;33722;-68
2022/03/05 04:43:51;;;;;;;2.97;2.60;;;;;;;2.95;55.59;100113.66;4320272;33;33620;-72
2022/03/05 04:46:19;;;;;;;26.02;13.52;;;;;;;2.98;56.07;100115.13;4333572;33;34322;-67
2022/03/05 04:48:46;;;;;;;26.62;14.20;;;;;;;2.74;56.72;100109.09;4333537;33;33610;-71
2022/03/05 04:51:14;;;;;;;25.02;13.43;;;;;;;3.08;55.75;100104.91;4333297;33;34267;-66
2022/03/05 04:53:41;;;;;;;23.62;13.60;;;;;;;3.12;55.56;100108.88;4333615;33;34502;-72
2022/03/05 04:56:09;;;;;;;23.87;14.05;;;;;;;2.71;56.77;100106.81;4333459;33;33343;-72
2022/03/05 04:58:36;;;;;;;26.50;14.70;;;;;;;3.17;55.70;100108.31;4333518;33;34765;-67
2022/03/05 05:01:04;;;;;;;23.48;13.10;;;;;;;2.43;57.24;100104.81;4333308;33;34127;-68
2022/03/05 05:03:33;;;;;;;25.58;13.55;;;;;;;2.51;57.26;100103.88;4333270;33;33957;-67
2022/03/05 05:06:01;;;;;;;22.17;12.60;;;;;;;2.51;57.39;100113.78;4329714;33;33741;-71
2022/03/05 05:08:29;;;;;;;23.90;12.85;;;;;;;2.57;57.34;100103.16;4312743;33;34860;-71
2022/03/05 05:10:56;;;;;;;24.05;12.32;;;;;;;2.45;57.72;100110.81;4314268;33;34995;-67
2022/03/05 05:13:23;;;;;;;23.52;11.82;;;;;;;3.17;55.49;100108.31;4319938;33;33849;-67
2022/03/05 05:15:51;;;;;;;1.25;0.80;;;;;;;2.77;56.34;100102.53;4333023;33;33405;-69
2022/03/05 05:18:19;;;;;;;23.58;12.27;;;;;;;2.96;56.40;100119.84;4333098;33;33999;-68
2022/03/05 05:20:46;;;;;;;20.70;11.10;;;;;;;2.97;56.28;100118.84;4331833;33;34000;-68
2022/03/05 05:23:14;;;;;;;22.42;12.90;;;;;;;3.45;55.55;100119.06;4319014;33;33894;-77
2022/03/05 05:25:42;;;;;;;21.25;11.12;;;;;;;3.22;55.78;100119.31;4303761;33;33672;-68
2022/03/05 05:28:09;;;;;;;19.27;11.43;;;;;;;3.34;55.37;100127.66;4317094;33;33658;-69
2022/03/05 05:30:37;;;;;;;21.23;11.43;;;;;;;3.55;54.74;100124.94;4316826;33;34302;-70
2022/03/05 05:33:04;;;;;;;18.98;11.23;;;;;;;3.36;55.33;100126.44;4316935;33;33916;-66
2022/03/05 05:35:32;;;;;;;21.15;11.70;;;;;;;3.29;55.53;100128.22;4317019;33;34462;-70
2022/03/05 05:37:59;;;;;;;20.25;11.65;;;;;;;2.45;57.47;100129.56;4330281;33;32806;-71
2022/03/05 05:40:28;;;;;;;22.92;11.00;;;;;;;2.55;57.39;100131.97;4330668;33;34319;-69
2022/03/05 05:42:55;;;;;;;20.90;11.48;;;;;;;3.46;55.22;100126.13;4328463;33;34720;-71
2022/03/05 05:45:23;;;;;;;0.80;0.80;;;;;;;3.11;56.03;100133.19;4331199;33;33313;-71
2022/03/05 05:47:50;;;;;;;20.83;11.43;;;;;;;3.53;55.04;100124.31;4317645;33;34843;-67
2022/03/05 05:50:18;;;;;;;22.45;10.93;;;;;;;2.88;56.07;100132.34;4316313;33;33674;-72
2022/03/05 05:52:46;;;;;;;21.60;11.75;;;;;;;2.64;57.11;100141.56;4319593;33;33836;-67
2022/03/05 05:55:13;;;;;;;20.77;11.10;;;;;;;3.29;55.54;100137.09;4321624;33;34471;-72
2022/03/05 05:57:41;;;;;;;0.60;0.60;;;;;;;3.01;56.44;100139.69;4323463;33;33840;-65
2022/03/05 06:00:09;;;;;;;22.52;10.90;;;;;;;3.17;56.58;100141.28;4321608;33;33851;-69
2022/03/05 06:02:38;;;;;;;20.45;10.95;;;;;;;3.34;55.99;100143.75;4316460;33;33800;-72
2022/03/05 06:05:06;;;;;;;19.15;10.90;;;;;;;3.45;55.17;100144.03;4317035;33;33680;-70
2022/03/05 06:07:34;;;;;;;20.00;10.82;;;;;;;3.15;56.27;100143.34;4325886;33;34004;-71
2022/03/05 06:10:01;;;;;;;20.58;10.18;;;;;;;3.41;56.60;100156.22;4331039;33;35041;-71
2022/03/05 06:12:29;;;;;;;18.67;10.55;;;;;;;3.33;56.21;100150.97;4331182;33;34692;-70
2022/03/05 06:14:56;;;;;;;18.83;10.32;;;;;;;3.78;54.63;100151.56;4331101;33;33132;-68
2022/03/05 06:17:24;;;;;;;20.17;10.98;;;;;;;3.51;55.53;100152.34;4331108;33;34686;-69
2022/03/05 06:19:52;;;;;;;20.75;10.85;;;;;;;3.37;55.92;100164.81;4331333;33;34260;-69
2022/03/05 06:22:19;;;;;;;21.87;10.65;;;;;;;3.41;55.62;100160.72;4330377;33;34685;-68
2022/03/05 06:24:47;;;;;;;21.73;10.70;;;;;;;3.89;54.38;100160.94;4331072;33;33695;-67
2022/03/05 06:27:14;;;;;;;20.55;11.10;;;;;;;3.92;54.22;100170.44;4330929;33;34016;-69
2022/03/05 06:29:42;;;;;;;25.42;11.35;;;;;;;3.87;54.36;100169.19;4330870;33;34085;-67
2022/03/05 06:32:10;;;;;;;19.65;11.25;;;;;;;3.44;54.87;100174.59;4330854;33;33731;-69
2022/03/05 06:34:38;;;;;;;22.08;11.50;;;;;;;3.51;54.60;100179.19;4330865;33;33394;-67
2022/03/05 06:37:05;;;;;;;22.73;12.10;;;;;;;3.45;54.83;100178.09;4331440;33;33942;-70
2022/03/05 06:39:32;;;;;;;26.37;12.57;;;;;;;3.41;55.10;100172.31;4332972;33;34200;-67
2022/03/05 06:42:00;;;;;;;22.48;11.73;;;;;;;3.60;54.27;100175.34;4332821;33;34935;-67
2022/03/05 06:44:32;;;;;;;23.12;12.57;;;;;;;3.53;54.19;100172.59;4332697;33;33621;-69
2022/03/05 06:47:00;;;;;;;24.80;13.70;;;;;;;3.46;54.63;100177.09;4333081;33;33724;-68
2022/03/05 06:49:27;;;;;;;21.52;11.90;;;;;;;3.50;54.65;100175.69;4332913;33;34339;-66
2022/03/05 06:51:56;;;;;;;22.70;11.73;;;;;;;3.92;53.65;100171.28;4332319;33;34654;-67
2022/03/05 06:54:24;;;;;;;22.50;13.05;;;;;;;4.15;54.02;100178.25;4332932;33;33577;-69
2022/03/05 06:56:51;;;;;;;23.30;13.35;;;;;;;4.52;53.17;100174.34;4332981;33;33934;-66
2022/03/05 06:59:19;;;;;;;21.52;11.93;;;;;;;4.78;51.41;100180.88;4332877;33;34084;-66
2022/03/05 07:01:47;;;;;;;25.65;13.55;;;;;;;4.45;53.59;100179.69;4332946;33;34058;-66
2022/03/05 07:04:14;;;;;;;23.23;12.48;;;;;;;4.21;54.17;100180.16;4332895;33;34428;-67
2022/03/05 07:06:42;;;;;;;20.33;12.20;;;;;;;4.20;53.21;100178.50;4332191;33;34554;-67
2022/03/05 07:09:09;;;;;;;21.83;12.30;;;;;;;4.44;53.95;100180.72;4332667;33;34982;-67
2022/03/05 07:11:37;;;;;;;22.13;12.43;;;;;;;5.11;52.19;100181.81;4327628;33;34748;-66
2022/03/05 07:14:04;;;;;;;24.08;12.10;;;;;;;4.74;52.40;100183.13;4318834;33;33499;-71
2022/03/05 07:16:32;;;;;;;21.52;11.90;;;;;;;4.69;53.00;100177.53;4319398;33;34896;-67
2022/03/05 07:18:59;;;;;;;21.62;11.77;;;;;;;4.78;53.28;100184.41;4319183;33;34984;-70
2022/03/05 07:21:27;;;;;;;19.67;10.85;;;;;;;4.91;53.41;100187.13;4319177;33;33738;-69
2022/03/05 07:23:54;;;;;;;21.50;11.75;;;;;;;5.03;53.14;100190.09;4318983;33;34347;-70
2022/03/05 07:26:22;;;;;;;19.58;11.07;;;;;;;5.08;52.93;100193.00;4319973;33;34024;-69
2022/03/05 07:28:50;;;;;;;3.70;0.98;;;;;;;4.87;52.80;100190.44;4319318;33;35629;-69
2022/03/05 07:31:18;;;;;;;18.52;9.55;;;;;;;5.23;51.70;100179.37;4320130;33;34163;-66
2022/03/05 07:33:45;;;;;;;16.65;9.60;;;;;;;5.18;51.74;100179.16;4333334;33;34488;-70
2022/03/05 07:36:12;;;;;;;18.33;9.73;;;;;;;4.96;50.77;100188.41;4333917;33;33912;-69
2022/03/05 07:38:43;;;;;;;16.33;10.32;;;;;;;5.37;50.26;100193.69;4321494;33;34207;-69
2022/03/05 07:41:11;;;;;;;19.40;11.52;;;;;;;5.28;49.11;100189.53;4318445;33;33926;-69
2022/03/05 07:43:41;;;;;;;17.33;10.95;;;;;;;5.61;49.76;100186.06;4318977;33;34308;-68
2022/03/05 07:46:09;;;;;;;16.42;9.48;;;;;;;5.39;50.81;100188.09;4319108;33;33928;-69
2022/03/05 07:48:36;;;;;;;16.35;8.23;;;;;;;5.75;51.63;100190.44;4318738;33;33822;-70
2022/03/05 07:51:04;;;;;;;14.63;7.72;;;;;;;5.73;51.04;100195.19;4318759;33;33901;-69
2022/03/05 07:53:31;;;;;;;12.37;7.75;;;;;;;5.89;50.51;100202.03;4319120;33;33276;-68
2022/03/05 07:55:59;;;;;;;13.18;8.13;;;;;;;5.29;50.64;100197.41;4318584;33;34118;-69
2022/03/05 07:58:27;;;;;;;12.50;7.18;;;;;;;5.69;49.63;100199.34;4319086;33;35067;-70
2022/03/05 08:00:54;;;;;;;14.45;8.07;;;;;;;4.96;51.68;100202.66;4318681;33;34591;-66
2022/03/05 08:03:22;;;;;;;14.70;7.32;;;;;;;4.77;50.64;100206.09;4318645;33;33523;-69
2022/03/05 08:05:51;;;;;;;12.73;7.43;;;;;;;3.95;53.50;100215.69;4318986;33;34677;-69
2022/03/05 08:08:18;;;;;;;12.00;6.85;;;;;;;4.29;53.19;100209.53;4319061;33;34186;-68
2022/03/05 08:10:46;;;;;;;10.85;6.65;;;;;;;4.44;52.54;100212.94;4318006;33;34094;-69
2022/03/05 08:13:13;;;;;;;11.80;7.57;;;;;;;4.70;51.80;100222.19;4318643;33;33282;-68
2022/03/05 08:15:47;;;;;;;1.10;0.93;;;;;;;4.27;52.13;100208.91;4318950;33;33973;-68
2022/03/05 08:18:15;;;;;;;12.90;7.43;;;;;;;4.09;52.54;100215.59;4318879;33;34442;-67
2022/03/05 08:20:42;;;;;;;11.82;6.60;;;;;;;3.80;53.65;100216.63;4318514;33;34942;-71
2022/03/05 08:23:10;;;;;;;12.25;6.78;;;;;;;3.88;53.25;100216.47;4318508;33;33841;-65
2022/03/05 08:25:37;;;;;;;12.85;6.90;;;;;;;3.55;54.87;100215.34;4318806;33;34714;-65
2022/03/05 08:28:05;;;;;;;13.68;7.47;;;;;;;4.01;53.77;100223.78;4317954;33;34067;-66
2022/03/05 08:30:33;;;;;;;11.60;6.53;;;;;;;3.74;54.33;100220.06;4318599;33;34895;-67
2022/03/05 08:33:00;;;;;;;18.12;9.40;;;;;;;3.95;54.51;100229.12;4318652;33;33589;-67
2022/03/05 08:35:28;;;;;;;12.00;6.75;;;;;;;4.28;53.49;100215.97;4318620;33;33991;-71
2022/03/05 08:38:01;;;;;;;14.07;7.15;;;;;;;3.93;53.89;100215.91;4303601;33;84428;-67
2022/03/05 08:40:28;;;;;;;13.57;7.75;;;;;;;3.76;54.39;100220.72;4318042;33;33987;-70
2022/03/05 08:42:55;;;;;;;15.25;8.23;;;;;;;3.61;55.75;100226.13;4318506;33;34225;-66
2022/03/05 08:45:28;;;;;;;12.52;8.07;;;;;;;3.86;54.83;100226.56;4318600;33;34013;-76
2022/03/05 08:47:56;;;;;;;18.17;8.68;;;;;;;4.18;54.23;100216.28;4318961;33;34090;-68
2022/03/05 08:50:23;;;;;;;13.88;8.13;;;;;;;4.41;53.83;100234.03;4318527;33;33562;-65
2022/03/05 08:52:51;;;;;;;15.05;8.55;;;;;;;4.08;54.83;100223.84;4318430;33;33193;-65
2022/03/05 08:55:18;;;;;;;16.23;8.80;;;;;;;4.46;54.19;100228.88;4318101;33;33680;-66
2022/03/05 08:57:45;;;;;;;17.65;8.35;;;;;;;4.18;54.73;100223.53;4317818;33;34200;-69
2022/03/05 09:00:14;;;;;;;15.60;8.77;;;;;;;3.95;55.13;100227.25;4317964;33;34098;-67
2022/03/05 09:02:42;;;;;;;16.42;8.45;;;;;;;4.05;55.98;100229.63;4318413;33;33553;-67
2022/03/05 09:05:10;;;;;;;17.12;9.05;;;;;;;4.30;54.09;100224.66;4318297;33;34869;-69
2022/03/05 09:07:38;;;;;;;18.48;9.05;;;;;;;4.40;53.63;100230.47;4317423;33;35136;-66
2022/03/05 09:10:06;;;;;;;16.10;8.60;;;;;;;4.83;52.08;100222.25;4317411;33;33774;-66
2022/03/05 09:12:34;;;;;;;14.75;7.72;;;;;;;4.61;51.20;100228.75;4318386;33;34671;-66
2022/03/05 09:15:01;;;;;;;13.98;8.02;;;;;;;4.04;53.21;100219.87;4317765;33;34039;-69
2022/03/05 09:17:29;;;;;;;13.27;7.70;;;;;;;4.42;52.53;100214.19;4317727;33;34107;-69
2022/03/05 09:19:57;;;;;;;14.85;8.07;;;;;;;4.61;51.11;100216.16;4317584;33;33950;-67
2022/03/05 09:22:25;;;;;;;21.33;10.00;;;;;;;4.62;50.56;100220.50;4304641;33;33520;-68
2022/03/05 09:24:52;;;;;;;25.02;11.57;;;;;;;4.52;50.48;100222.72;4317807;33;34616;-69
2022/03/05 09:27:20;;;;;;;34.38;15.77;;;;;;;5.27;48.42;100222.84;4318463;33;35278;-70
2022/03/05 09:29:48;;;;;;;22.00;11.23;;;;;;;5.30;48.21;100217.06;4318349;33;34464;-68
2022/03/05 09:32:15;;;;;;;1.98;1.67;;;;;;;5.09;48.79;100212.66;4317699;33;33431;-71
2022/03/05 09:34:43;;;;;;;11.85;7.20;;;;;;;5.17;48.60;100215.16;4318081;33;34766;-70
2022/03/05 09:37:10;;;;;;;12.65;6.53;;;;;;;5.44;47.53;100215.22;4318253;33;33996;-69
2022/03/05 09:39:38;;;;;;;12.55;6.70;;;;;;;5.80;46.54;100225.62;4318354;33;34021;-70
2022/03/05 09:42:06;;;;;;;12.25;7.30;;;;;;;6.16;45.39;100216.37;4317876;33;33536;-66
2022/03/05 09:44:34;;;;;;;13.62;8.32;;;;;;;6.40;45.81;100217.56;4318007;33;33794;-68
2022/03/05 09:47:02;;;;;;;14.60;7.65;;;;;;;6.58;44.06;100215.03;4318159;33;34271;-69
2022/03/05 09:49:30;;;;;;;12.20;6.60;;;;;;;7.19;43.20;100216.50;4324503;33;34029;-67
2022/03/05 09:52:00;;;;;;;11.48;6.60;;;;;;;6.49;44.30;100205.53;4332219;33;34244;-70
2022/03/05 09:54:28;;;;;;;11.95;6.28;;;;;;;7.59;43.24;100204.62;4332335;33;34742;-69
2022/03/05 09:56:55;;;;;;;11.73;5.95;;;;;;;7.47;41.72;100220.69;4332221;33;35120;-68
2022/03/05 09:59:24;;;;;;;11.52;6.40;;;;;;;7.14;40.82;100208.19;4332461;33;34299;-72
2022/03/05 10:01:52;;;;;;;14.07;6.60;;;;;;;6.86;40.42;100205.00;4332486;33;33581;-66
2022/03/05 10:04:22;;;;;;;11.77;6.55;;;;;;;6.79;41.31;100205.03;4331596;33;34134;-66
2022/03/05 10:07:09;;;;;;;12.70;7.20;;;;;;;7.55;41.81;100204.22;4332407;33;34183;-71
2022/03/05 10:09:38;;;;;;;11.32;6.72;;;;;;;7.68;41.34;100216.00;4332366;33;34108;-68
2022/03/05 10:12:27;;;;;;;13.52;6.80;;;;;;;7.54;39.70;100208.00;4332762;33;33249;-71
2022/03/05 10:15:08;;;;;;;12.98;7.12;;;;;;;6.76;39.84;100200.91;4332535;33;33642;-70
2022/03/05 10:17:50;;;;;;;13.50;7.03;;;;;;;6.10;41.58;100203.72;4333658;33;34112;-68
2022/03/05 10:20:19;;;;;;;10.77;6.15;;;;;;;6.44;41.05;100210.72;4333842;33;34436;-71
2022/03/05 10:23:07;;;;;;;12.55;6.70;;;;;;;6.82;42.04;100206.47;4320775;33;33478;-68
2022/03/05 10:25:40;;;;;;;11.23;6.07;;;;;;;7.16;39.88;100200.72;4334056;33;33691;-68
2022/03/05 10:28:21;;;;;;;10.60;5.97;;;;;;;6.80;42.07;100203.97;4334111;33;34194;-69
2022/03/05 10:30:55;;;;;;;10.90;6.35;;;;;;;7.28;41.61;100203.59;4333916;33;33942;-65
2022/03/05 10:33:23;;;;;;;12.55;6.68;;;;;;;7.81;41.01;100203.22;4333975;33;33369;-67
2022/03/05 10:35:51;;;;;;;12.52;6.55;;;;;;;8.43;39.20;100205.22;4333921;33;34665;-65
2022/03/05 10:38:18;;;;;;;11.75;6.07;;;;;;;8.56;38.39;100199.66;4334317;33;34202;-66
2022/03/05 10:40:53;;;;;;;9.45;5.62;;;;;;;8.30;37.67;100200.72;4333640;33;34852;-66
2022/03/05 10:43:21;;;;;;;10.60;5.72;;;;;;;8.76;36.19;100204.03;4333856;33;34193;-68
2022/03/05 10:45:50;;;;;;;9.93;5.50;;;;;;;9.92;35.52;100195.78;4334052;33;34096;-66
2022/03/05 10:48:36;;;;;;;10.98;6.00;;;;;;;9.74;36.99;100193.97;4333988;33;34893;-66
2022/03/05 10:51:13;;;;;;;9.52;5.57;;;;;;;9.02;35.47;100195.59;4334517;33;34136;-66
2022/03/05 10:53:42;;;;;;;9.10;5.37;;;;;;;9.57;35.38;100189.22;4334227;33;34297;-69
2022/03/05 10:56:21;;;;;;;11.07;5.90;;;;;;;10.26;33.34;100189.56;4334024;33;33812;-69
2022/03/05 10:59:10;;;;;;;11.43;6.07;;;;;;;8.21;35.49;100186.69;4334444;33;34168;-68
2022/03/05 11:01:43;;;;;;;9.05;5.30;;;;;;;7.43;36.87;100184.41;4334088;33;33974;-68
2022/03/05 11:04:11;;;;;;;12.80;5.53;;;;;;;6.92;38.41;100183.41;4334094;33;33514;-70
2022/03/05 11:06:41;;;;;;;9.55;5.20;;;;;;;6.86;37.37;100178.03;4333947;33;34583;-70
2022/03/05 11:09:11;;;;;;;10.60;5.32;;;;;;;6.81;39.31;100177.84;4332400;33;34286;-70
2022/03/05 11:11:40;;;;;;;10.38;5.65;;;;;;;7.25;36.09;100186.97;4332790;33;33981;-68
2022/03/05 11:14:14;;;;;;;12.23;6.05;;;;;;;6.63;37.30;100179.37;4332789;33;34299;-71
2022/03/05 11:16:42;;;;;;;11.52;6.28;;;;;;;7.42;35.86;100176.50;4332215;33;33911;-68
2022/03/05 11:19:11;;;;;;;10.25;5.10;;;;;;;6.86;37.64;100183.44;4333687;33;34918;-75
2022/03/05 11:21:39;;;;;;;12.13;6.05;;;;;;;7.12;36.91;100179.78;4333258;33;33863;-66
2022/03/05 11:24:07;;;;;;;10.35;5.80;;;;;;;7.16;37.41;100170.22;4327541;33;33501;-68
2022/03/05 11:26:37;;;;;;;10.65;6.30;;;;;;;7.04;37.92;100169.22;4303914;33;34022;-68
2022/03/05 11:29:28;;;;;;;16.33;8.05;;;;;;;6.87;39.08;100172.44;4306987;33;35216;-68